Time;durP1;ratioP1;P1;durP2;ratioP2;P2;SDS_P1;SDS_P2;PMS_P1;PMS_P2;Temp;Humidity;BMP_temperature;BMP_pressure;BME280_temperature;BME280_humidity;BME280_pressure;Samples;Min_cycle;Max_cycle;Signal;HPM_P1;HPM_P2
2023/06/07 04:30:34;;;;;;;;;19.50;14.50;;;;;19.99;55.31;101249.31;5017138;28;46496;-75
2023/06/07 04:33:08;;;;;;;;;19.00;14.25;;;;;19.99;55.29;101254.75;4994961;28;45545;-74
2023/06/07 04:35:34;;;;;;;;;16.75;15.25;;;;;20.00;55.24;101256.47;4977362;28;45481;-74
2023/06/07 04:38:01;;;;;;;;;21.75;15.25;;;;;20.02;55.21;101252.66;4976859;28;45288;-75
2023/06/07 04:40:27;;;;;;;;;22.50;20.00;;;;;20.05;55.23;101254.28;4976404;28;45476;-75
2023/06/07 04:43:05;;;;;;;;;28.25;18.25;;;;;20.05;55.20;101251.56;4976632;28;46014;-74
2023/06/07 04:45:34;;;;;;;;;18.00;18.00;;;;;20.06;55.08;101255.16;4976666;28;45347;-75
2023/06/07 04:48:00;;;;;;;;;23.25;19.50;;;;;19.97;55.02;101249.44;4976438;28;45383;-76
2023/06/07 04:50:28;;;;;;;;;21.00;19.00;;;;;20.00;55.22;101254.63;4976591;28;45302;-75
2023/06/07 04:53:06;;;;;;;;;20.25;18.00;;;;;19.89;55.28;101242.84;4956310;28;46438;-75
2023/06/07 04:55:34;;;;;;;;;18.75;17.75;;;;;20.00;55.24;101262.78;4976496;28;45439;-75
2023/06/07 04:58:04;;;;;;;;;21.50;18.50;;;;;19.97;55.14;101267.63;4976544;28;45646;-74
2023/06/07 05:00:30;;;;;;;;;21.50;19.50;;;;;19.93;55.51;101258.81;4975994;28;46559;-74
2023/06/07 05:02:56;;;;;;;;;20.00;18.50;;;;;19.98;55.50;101261.19;4975924;28;46170;-75
2023/06/07 05:05:22;;;;;;;;;20.75;18.25;;;;;20.01;55.29;101264.53;4976550;28;45488;-74
2023/06/07 05:07:49;;;;;;;;;21.00;20.00;;;;;19.99;55.20;101266.50;4974941;28;45362;-75
2023/06/07 05:10:17;;;;;;;;;13.75;12.75;;;;;19.99;55.22;101258.34;4976144;28;45507;-76
2023/06/07 05:12:42;;;;;;;;;22.25;17.50;;;;;19.99;54.90;101260.19;4975955;28;45519;-75
2023/06/07 05:15:08;;;;;;;;;23.75;20.25;;;;;19.97;55.38;101270.34;4958291;28;45391;-76
2023/06/07 05:17:34;;;;;;;;;20.25;16.75;;;;;19.82;55.46;101236.16;4975930;28;45357;-76
2023/06/07 05:20:00;;;;;;;;;24.75;23.25;;;;;20.02;55.35;101266.28;4972198;28;45466;-76
2023/06/07 05:22:25;;;;;;;;;22.50;20.75;;;;;20.06;55.28;101266.91;4974113;28;45872;-74
2023/06/07 05:24:52;;;;;;;;;24.75;21.50;;;;;19.94;55.12;101249.66;4958908;28;45301;-77
2023/06/07 05:27:18;;;;;;;;;25.50;20.50;;;;;20.00;55.49;101264.66;4989587;28;45342;-76
2023/06/07 05:29:43;;;;;;;;;26.50;22.50;;;;;19.94;55.66;101252.38;4975891;28;45397;-82
2023/06/07 05:32:09;;;;;;;;;25.00;22.50;;;;;20.00;55.61;101260.06;4978314;28;46984;-78
2023/06/07 05:34:35;;;;;;;;;27.25;22.50;;;;;19.95;55.36;101256.84;4992520;28;45478;-77
2023/06/07 05:37:02;;;;;;;;;26.25;24.00;;;;;20.00;55.27;101260.06;4995717;28;45377;-76
2023/06/07 05:39:27;;;;;;;;;24.50;20.50;;;;;19.98;55.46;101253.91;4977718;28;45537;-76
2023/06/07 05:41:54;;;;;;;;;24.75;22.00;;;;;19.84;55.75;101237.75;4995109;28;47178;-76
2023/06/07 05:44:22;;;;;;;;;25.25;19.25;;;;;19.86;55.65;101249.38;4995228;28;45397;-79
2023/06/07 05:46:47;;;;;;;;;24.75;23.00;;;;;19.88;55.60;101258.31;4994921;28;45353;-74
2023/06/07 05:49:12;;;;;;;;;25.25;21.25;;;;;19.87;55.91;101261.16;4992771;28;51736;-76
2023/06/07 05:51:38;;;;;;;;;24.25;22.25;;;;;19.84;55.82;101251.34;4992019;28;46569;-78
2023/06/07 05:54:05;;;;;;;;;26.25;21.00;;;;;19.88;55.90;101249.28;4985410;28;45414;-76
2023/06/07 05:56:30;;;;;;;;;19.00;19.00;;;;;19.91;55.55;101252.63;4991426;28;45411;-76
2023/06/07 05:58:56;;;;;;;;;29.00;23.75;;;;;20.03;55.64;101264.44;4994914;28;45330;-78
2023/06/07 06:01:21;;;;;;;;;25.00;22.25;;;;;19.96;55.45;101249.56;4993999;28;47160;-72
2023/06/07 06:03:47;;;;;;;;;27.25;23.25;;;;;20.05;55.57;101267.03;4994810;28;45431;-74
2023/06/07 06:06:16;;;;;;;;;27.75;24.50;;;;;20.08;55.19;101258.59;4994781;28;45543;-72
2023/06/07 06:08:42;;;;;;;;;26.00;24.25;;;;;20.06;55.29;101252.44;4994710;28;45215;-72
2023/06/07 06:11:12;;;;;;;;;22.50;20.25;;;;;20.11;55.09;101264.69;4994430;28;45307;-71
2023/06/07 06:13:38;;;;;;;;;22.75;19.00;;;;;20.19;55.34;101273.13;4994841;28;45333;-73
2023/06/07 06:16:03;;;;;;;;;27.00;22.00;;;;;20.20;54.82;101263.97;4994585;28;45511;-73
2023/06/07 06:18:29;;;;;;;;;25.75;22.50;;;;;20.20;55.03;101261.25;4976745;28;47473;-70
2023/06/07 06:20:54;;;;;;;;;30.00;23.75;;;;;20.22;54.89;101251.13;4994259;28;45506;-73
2023/06/07 06:23:20;;;;;;;;;24.00;21.50;;;;;20.33;54.51;101269.34;4994669;28;45286;-73
2023/06/07 06:25:46;;;;;;;;;30.50;23.00;;;;;20.33;54.83;101266.63;4994670;28;45313;-73
2023/06/07 06:28:11;;;;;;;;;19.50;15.50;;;;;20.34;54.63;101276.53;4994761;28;45334;-72
2023/06/07 06:30:37;;;;;;;;;26.50;22.25;;;;;20.37;54.91;101285.34;4982659;28;46113;-71
2023/06/07 06:33:02;;;;;;;;;32.00;22.25;;;;;20.26;54.61;101268.06;4973561;28;45432;-70
2023/06/07 06:35:28;;;;;;;;;29.25;26.75;;;;;20.31;54.94;101276.78;4971771;28;45552;-73
2023/06/07 06:37:54;;;;;;;;;28.50;27.00;;;;;20.32;54.95;101293.00;4957582;28;45454;-72
2023/06/07 06:40:22;;;;;;;;;31.75;27.50;;;;;20.26;54.77;101278.97;4956132;28;52420;-73
2023/06/07 06:42:48;;;;;;;;;29.75;22.75;;;;;20.36;54.75;101289.06;4974875;28;45337;-73
2023/06/07 06:45:13;;;;;;;;;29.75;25.50;;;;;20.37;54.65;101274.47;4974456;28;45388;-72
2023/06/07 06:47:41;;;;;;;;;28.75;24.25;;;;;20.43;54.76;101284.00;4974693;28;45432;-72
2023/06/07 06:50:08;;;;;;;;;27.75;23.25;;;;;20.46;54.60;101281.03;4974024;28;45461;-73
2023/06/07 06:52:33;;;;;;;;;26.00;23.50;;;;;20.50;54.58;101268.91;4975099;28;45347;-72
2023/06/07 06:54:59;;;;;;;;;24.75;23.25;;;;;20.46;54.73;101266.56;4961283;28;45267;-72
2023/06/07 06:57:24;;;;;;;;;28.50;24.50;;;;;20.51;54.34;101269.75;4974688;28;48764;-74
2023/06/07 06:59:49;;;;;;;;;35.00;29.00;;;;;20.57;54.33;101275.63;4974560;28;46138;-74
2023/06/07 07:02:15;;;;;;;;;33.75;29.25;;;;;20.61;54.23;101279.81;4965020;28;45329;-74
2023/06/07 07:04:41;;;;;;;;;25.75;24.75;;;;;20.54;54.11;101273.13;4959353;28;45383;-73
2023/06/07 07:07:07;;;;;;;;;26.00;20.25;;;;;20.55;54.47;101280.31;4974499;28;45503;-74
2023/06/07 07:09:32;;;;;;;;;26.00;21.75;;;;;20.52;54.94;101272.38;4974120;28;45433;-75
2023/06/07 07:11:57;;;;;;;;;24.50;24.25;;;;;20.55;54.35;101274.88;4974487;28;45330;-73
2023/06/07 07:14:23;;;;;;;;;27.50;25.25;;;;;20.56;54.39;101273.88;4973148;28;45505;-73
2023/06/07 07:16:48;;;;;;;;;25.50;23.25;;;;;20.49;54.49;101264.47;4974572;28;45457;-74
2023/06/07 07:19:13;;;;;;;;;18.50;17.25;;;;;20.60;54.90;101283.53;4974021;28;47167;-75
2023/06/07 07:21:39;;;;;;;;;24.50;22.50;;;;;20.58;54.44;101274.63;4973829;28;46789;-75
2023/06/07 07:24:05;;;;;;;;;28.00;22.25;;;;;20.61;54.55;101273.50;4974236;28;45389;-73
2023/06/07 07:26:30;;;;;;;;;30.00;22.25;;;;;20.60;54.56;101282.66;4974137;28;45379;-74
2023/06/07 07:28:56;;;;;;;;;19.25;18.50;;;;;20.59;54.54;101270.03;4973789;28;46042;-74
2023/06/07 07:31:21;;;;;;;;;24.00;21.25;;;;;20.63;54.72;101271.53;4981151;28;45287;-74
2023/06/07 07:33:47;;;;;;;;;24.50;19.00;;;;;20.64;54.92;101286.91;4989285;28;45499;-75
2023/06/07 07:36:12;;;;;;;;;28.00;24.50;;;;;20.64;54.82;101287.75;4993932;28;45582;-74
2023/06/07 07:38:37;;;;;;;;;24.75;20.75;;;;;20.58;55.64;101276.50;4993528;28;45310;-74
2023/06/07 07:41:05;;;;;;;;;27.00;25.25;;;;;20.65;55.35;101286.78;4993881;28;45461;-73
2023/06/07 07:43:30;;;;;;;;;28.75;22.75;;;;;20.67;55.25;101289.38;4993776;28;45334;-73
2023/06/07 07:45:56;;;;;;;;;23.00;19.50;;;;;20.67;55.77;101284.78;4993649;28;45488;-72
2023/06/07 07:48:21;;;;;;;;;27.25;24.25;;;;;20.74;54.84;101283.31;4993470;28;45394;-75
2023/06/07 07:50:46;;;;;;;;;33.50;26.25;;;;;20.77;54.91;101277.59;4993777;28;45386;-75
2023/06/07 07:53:12;;;;;;;;;26.75;22.50;;;;;20.82;54.44;101284.56;4993173;28;45317;-75
2023/06/07 07:55:37;;;;;;;;;25.75;23.00;;;;;20.82;54.21;101274.53;4986900;28;45307;-74
2023/06/07 07:58:02;;;;;;;;;22.50;18.50;;;;;20.87;54.33;101277.75;4996871;28;45938;-75
2023/06/07 08:00:28;;;;;;;;;21.25;19.00;;;;;20.77;53.92;101263.97;4996300;28;45966;-73
2023/06/07 08:02:53;;;;;;;;;28.00;22.75;;;;;20.94;53.72;101281.69;4997053;28;45475;-74
2023/06/07 08:05:18;;;;;;;;;24.00;20.50;;;;;20.97;53.74;101275.16;4997187;28;45342;-74
2023/06/07 08:07:43;;;;;;;;;33.25;26.25;;;;;21.00;53.61;101277.63;4996521;28;46165;-74
2023/06/07 08:10:11;;;;;;;;;21.50;19.50;;;;;21.06;53.87;101274.41;4996802;28;45496;-74
2023/06/07 08:12:36;;;;;;;;;20.50;18.00;;;;;21.13;53.86;101276.50;4997174;28;45297;-75
2023/06/07 08:15:02;;;;;;;;;19.25;18.50;;;;;21.09;53.74;101263.25;4996548;28;45214;-74
2023/06/07 08:17:28;;;;;;;;;27.00;23.75;;;;;21.18;53.31;101267.13;4978572;28;47559;-74
2023/06/07 08:19:53;;;;;;;;;23.75;22.00;;;;;21.20;53.92;101268.72;4996699;28;45261;-73
2023/06/07 08:22:18;;;;;;;;;20.00;19.00;;;;;21.28;53.89;101270.81;4996607;28;45438;-74
2023/06/07 08:24:44;;;;;;;;;28.75;23.50;;;;;21.32;53.13;101267.72;4996650;28;45285;-74
2023/06/07 08:27:10;;;;;;;;;27.25;23.75;;;;;21.33;53.16;101265.84;4994989;28;47946;-74
2023/06/07 08:29:35;;;;;;;;;18.50;18.50;;;;;21.39;53.05;101276.25;4996220;28;45412;-73
2023/06/07 08:32:01;;;;;;;;;27.50;23.50;;;;;21.48;53.24;101279.09;4996566;28;46168;-74
2023/06/07 08:34:29;;;;;;;;;23.25;21.75;;;;;21.53;53.27;101282.28;4974104;28;45571;-74
2023/06/07 08:36:55;;;;;;;;;26.50;19.50;;;;;21.51;53.29;101258.88;4996466;28;45486;-73
2023/06/07 08:39:21;;;;;;;;;24.25;20.25;;;;;21.68;53.58;101277.44;4996594;28;45318;-73
2023/06/07 08:41:47;;;;;;;;;24.25;21.25;;;;;21.77;52.98;101273.06;4996543;28;45484;-73
2023/06/07 08:44:12;;;;;;;;;22.25;21.00;;;;;21.76;52.40;101261.28;4996418;28;45519;-74
2023/06/07 08:46:37;;;;;;;;;27.25;22.50;;;;;21.83;52.88;101256.16;4996599;28;46382;-75
2023/06/07 08:49:05;;;;;;;;;23.00;19.00;;;;;22.05;52.32;101275.19;4997209;28;45476;-72
2023/06/07 08:51:36;;;;;;;;;18.75;15.50;;;;;22.00;52.49;101243.84;4979695;28;45425;-74
2023/06/07 08:54:02;;;;;;;;;22.75;18.50;;;;;22.23;51.97;101267.28;4987900;28;45986;-73
2023/06/07 08:56:29;;;;;;;;;22.50;19.50;;;;;22.34;51.42;101269.09;4994543;28;46665;-73
2023/06/07 08:58:55;;;;;;;;;20.00;18.00;;;;;22.41;50.52;101259.38;4997979;28;45485;-72
2023/06/07 09:01:21;;;;;;;;;20.50;18.50;;;;;22.50;50.32;101261.28;4997973;28;45346;-75
2023/06/07 09:03:53;;;;;;;;;23.25;19.00;;;;;22.56;49.49;101247.94;4997441;28;45327;-74
2023/06/07 09:06:21;;;;;;;;;20.75;19.50;;;;;22.64;49.56;101252.72;4996624;28;46327;-75
2023/06/07 09:08:46;;;;;;;;;18.75;18.75;;;;;22.70;48.84;101248.59;4995717;28;45393;-74
2023/06/07 09:11:12;;;;;;;;;23.75;20.25;;;;;22.75;48.50;101255.41;4995903;28;45327;-74
2023/06/07 09:13:38;;;;;;;;;18.25;15.00;;;;;22.76;48.44;101248.97;4978274;28;45433;-76
2023/06/07 09:16:04;;;;;;;;;19.25;17.25;;;;;22.86;49.02;101255.34;4995465;28;45428;-75
2023/06/07 09:18:53;;;;;;;;;17.75;17.25;;;;;22.95;49.12;101262.72;4977902;28;45346;-74
2023/06/07 09:21:30;;;;;;;;;23.25;18.50;;;;;23.01;49.02;101264.03;4996149;28;45302;-73
2023/06/07 09:23:58;;;;;;;;;27.75;23.25;;;;;23.09;48.59;101260.59;4995299;28;45540;-74
2023/06/07 09:26:35;;;;;;;;;20.75;17.00;;;;;23.13;48.80;101256.59;4996289;28;45485;-75
2023/06/07 09:29:05;;;;;;;;;20.75;19.50;;;;;23.14;48.41;101242.75;4995426;28;45339;-74
2023/06/07 09:31:34;;;;;;;;;19.50;18.50;;;;;23.21;48.27;101249.44;4995628;28;45512;-75
2023/06/07 09:34:22;;;;;;;;;20.00;17.50;;;;;23.31;47.63;101254.91;4990376;28;45547;-73
2023/06/07 09:36:49;;;;;;;;;22.50;21.50;;;;;23.35;47.46;101248.16;4995203;28;46327;-74
2023/06/07 09:39:23;;;;;;;;;23.25;19.75;;;;;23.40;47.64;101238.50;4995693;28;45306;-74
2023/06/07 09:41:50;;;;;;;;;27.00;17.75;;;;;23.45;47.44;101249.06;4995228;28;45274;-75
2023/06/07 09:44:22;;;;;;;;;15.00;14.50;;;;;23.51;47.53;101240.31;4995102;28;45484;-77
2023/06/07 09:46:47;;;;;;;;;21.00;15.00;;;;;23.59;47.16;101240.47;4995074;28;45298;-73
2023/06/07 09:49:12;;;;;;;;;18.00;18.00;;;;;23.61;47.11;101232.97;4995259;28;45300;-72
2023/06/07 09:51:42;;;;;;;;;23.25;20.25;;;;;23.70;46.13;101236.72;4995548;28;45206;-74
2023/06/07 09:54:09;;;;;;;;;21.75;17.25;;;;;23.73;46.51;101226.34;4984622;28;45365;-74
2023/06/07 09:56:38;;;;;;;;;20.75;17.00;;;;;23.81;46.36;101231.13;4992584;28;46084;-75
2023/06/07 09:59:07;;;;;;;;;20.25;18.75;;;;;23.86;46.00;101223.34;4977215;28;45282;-75
2023/06/07 10:01:45;;;;;;;;;22.25;18.50;;;;;23.90;45.96;101223.91;4994953;28;45398;-76
2023/06/07 10:04:11;;;;;;;;;20.00;18.50;;;;;23.84;45.63;101205.31;4995048;28;45277;-76
2023/06/07 10:06:47;;;;;;;;;16.00;15.50;;;;;23.90;44.66;101210.22;4995239;28;45369;-74
2023/06/07 10:09:16;;;;;;;;;21.50;18.50;;;;;23.93;44.79;101207.19;4995046;28;45475;-73
2023/06/07 10:11:45;;;;;;;;;20.00;19.00;;;;;24.05;44.80;101223.31;4995209;28;45342;-72
2023/06/07 10:14:12;;;;;;;;;20.00;18.25;;;;;24.12;45.00;101212.66;4994567;28;45384;-74
2023/06/07 10:16:44;;;;;;;;;19.50;18.50;;;;;24.19;45.27;101218.41;4994055;28;45345;-73
2023/06/07 10:19:17;;;;;;;;;22.50;20.00;;;;;24.25;45.62;101213.22;4977782;28;45540;-74
2023/06/07 10:21:46;;;;;;;;;18.75;18.50;;;;;24.22;44.80;101196.22;4995044;28;45440;-74
2023/06/07 10:24:16;;;;;;;;;20.75;18.75;;;;;24.31;44.61;101201.69;4994737;28;45152;-75
2023/06/07 10:26:49;;;;;;;;;18.00;14.75;;;;;24.03;44.78;101145.03;4994765;28;45408;-73
2023/06/07 10:29:25;;;;;;;;;21.25;18.75;;;;;24.39;44.24;101196.34;4994500;28;45387;-74
2023/06/07 10:32:05;;;;;;;;;17.25;17.25;;;;;24.48;43.72;101198.19;4994677;28;45499;-74
2023/06/07 10:34:32;;;;;;;;;18.50;16.50;;;;;24.60;44.51;101208.94;4990244;28;45354;-75
2023/06/07 10:36:58;;;;;;;;;17.00;17.00;;;;;24.67;44.42;101204.63;4994627;28;45416;-73
2023/06/07 10:39:24;;;;;;;;;20.75;17.50;;;;;24.75;44.69;101197.34;4994823;28;45286;-73
2023/06/07 10:41:50;;;;;;;;;16.00;14.25;;;;;24.79;43.80;101198.78;4994538;28;45318;-74
2023/06/07 10:44:16;;;;;;;;;20.00;17.75;;;;;24.85;43.83;101192.69;4994438;28;45398;-77
2023/06/07 10:46:41;;;;;;;;;21.00;19.00;;;;;24.88;43.50;101188.78;4994555;28;45452;-76
2023/06/07 10:49:36;;;;;;;;;26.00;21.75;;;;;24.96;42.78;101188.91;4994663;28;45509;-73
2023/06/07 10:52:03;;;;;;;;;20.50;17.75;;;;;24.99;42.91;101182.25;4994711;28;45515;-75
2023/06/07 10:54:30;;;;;;;;;21.75;19.25;;;;;25.05;42.66;101181.63;4981033;28;45451;-74
2023/06/07 10:56:56;;;;;;;;;20.50;16.00;;;;;25.08;42.98;101178.59;4981727;28;46088;-74
2023/06/07 10:59:22;;;;;;;;;18.00;16.75;;;;;25.16;43.22;101175.94;4994181;28;45259;-75
2023/06/07 11:01:49;;;;;;;;;22.25;17.50;;;;;25.21;42.36;101173.59;4994346;28;45486;-75
2023/06/07 11:04:39;;;;;;;;;20.00;16.75;;;;;25.25;42.47;101166.78;4994219;28;45171;-74
2023/06/07 11:07:20;;;;;;;;;21.00;18.00;;;;;25.30;42.97;101167.19;4994445;28;46268;-74
2023/06/07 11:09:49;;;;;;;;;17.50;15.75;;;;;25.33;42.51;101163.28;4994038;28;45389;-73
2023/06/07 11:12:45;;;;;;;;;16.75;16.00;;;;;25.42;42.41;101159.59;4994223;28;45320;-75
2023/06/07 11:15:17;;;;;;;;;19.50;16.50;;;;;25.52;42.83;101160.38;4994132;28;45337;-74
2023/06/07 11:17:55;;;;;;;;;17.50;17.50;;;;;25.58;41.73;101160.63;4993989;28;45679;-74
2023/06/07 11:20:36;;;;;;;;;16.50;16.50;;;;;25.68;41.50;101163.31;4994220;28;45472;-74
2023/06/07 11:23:19;;;;;;;;;15.75;14.50;;;;;25.77;41.31;101156.00;4994283;28;45493;-75
2023/06/07 11:25:44;;;;;;;;;21.75;16.75;;;;;25.86;41.44;101160.56;4993625;28;46309;-73
2023/06/07 11:28:11;;;;;;;;;14.00;14.00;;;;;25.91;41.21;101150.81;4996504;28;50101;-74
2023/06/07 11:30:38;;;;;;;;;20.00;16.00;;;;;26.02;40.76;101143.34;4997130;28;45272;-74
2023/06/07 11:33:03;;;;;;;;;14.25;14.25;;;;;26.03;38.89;101137.66;4995775;28;45495;-74
2023/06/07 11:35:31;;;;;;;;;14.75;14.00;;;;;26.11;38.88;101136.88;4994695;28;45382;-73
2023/06/07 11:38:03;;;;;;;;;19.50;17.50;;;;;26.20;37.55;101142.25;4997292;28;46236;-73
2023/06/07 11:40:28;;;;;;;;;16.25;14.75;;;;;26.25;37.69;101131.63;4997159;28;45539;-74
2023/06/07 11:42:54;;;;;;;;;17.00;15.00;;;;;26.31;37.20;101130.16;4997320;28;45322;-74
2023/06/07 11:45:20;;;;;;;;;16.75;16.75;;;;;26.35;37.24;101131.56;4991988;28;45535;-74
2023/06/07 11:47:49;;;;;;;;;21.50;19.00;;;;;26.46;36.38;101123.00;4989066;28;45370;-75
2023/06/07 11:50:15;;;;;;;;;15.75;15.75;;;;;26.52;35.98;101124.25;4997005;28;45282;-73
2023/06/07 11:52:40;;;;;;;;;14.00;13.00;;;;;26.61;35.70;101132.41;4997094;28;45234;-75
2023/06/07 11:55:08;;;;;;;;;21.00;17.75;;;;;26.70;36.45;101117.66;4983104;28;48746;-74
2023/06/07 11:57:37;;;;;;;;;18.00;16.00;;;;;26.80;35.62;101120.25;4996951;28;46172;-74
2023/06/07 12:00:08;;;;;;;;;16.25;15.50;;;;;26.86;35.90;101119.59;4996609;28;45254;-73
2023/06/07 12:02:39;;;;;;;;;14.75;14.75;;;;;26.99;34.94;101121.88;4997054;28;45446;-74
2023/06/07 12:05:11;;;;;;;;;15.75;15.75;;;;;27.05;34.88;101115.75;4997130;28;45364;-75
2023/06/07 12:07:38;;;;;;;;;15.75;15.75;;;;;27.12;34.30;101111.28;4996615;28;45269;-74
2023/06/07 12:10:05;;;;;;;;;17.50;16.50;;;;;27.19;34.74;101112.31;4996979;28;45322;-74
2023/06/07 12:12:31;;;;;;;;;17.00;16.25;;;;;27.25;33.68;101124.53;4979414;28;45321;-75
2023/06/07 12:15:03;;;;;;;;;15.25;15.25;;;;;27.31;34.85;101121.97;4996609;28;45456;-74
2023/06/07 12:17:36;;;;;;;;;14.50;13.50;;;;;27.33;34.58;101106.13;4996653;28;46223;-75
2023/06/07 12:20:12;;;;;;;;;20.75;16.50;;;;;27.45;34.70;101107.53;4978970;28;45488;-74
2023/06/07 12:22:38;;;;;;;;;16.75;13.00;;;;;27.56;34.55;101111.03;4996452;28;45226;-74
2023/06/07 12:25:18;;;;;;;;;18.25;14.75;;;;;27.65;34.29;101098.94;4996653;28;45394;-75
2023/06/07 12:27:47;;;;;;;;;18.50;18.00;;;;;27.71;32.90;101103.78;4996687;28;45362;-72
2023/06/07 12:30:13;;;;;;;;;17.25;14.50;;;;;27.77;33.20;101106.72;4983137;28;45438;-74
2023/06/07 12:32:39;;;;;;;;;14.75;13.75;;;;;27.82;32.26;101100.66;4988881;28;45358;-74
2023/06/07 12:35:05;;;;;;;;;13.75;12.00;;;;;27.93;32.84;101094.81;4990879;28;45505;-75
2023/06/07 12:37:35;;;;;;;;;14.00;14.00;;;;;28.04;33.28;101099.09;4996268;28;47053;-74
2023/06/07 12:40:02;;;;;;;;;15.50;13.75;;;;;28.14;32.62;101105.28;4995078;28;45327;-76
2023/06/07 12:42:28;;;;;;;;;16.00;14.50;;;;;28.25;32.89;101102.19;4996414;28;45527;-74
2023/06/07 12:44:54;;;;;;;;;15.00;15.00;;;;;28.36;31.54;101092.69;4995890;28;45311;-74
2023/06/07 12:47:20;;;;;;;;;15.50;13.25;;;;;28.40;31.44;101099.56;4996084;28;46087;-74
2023/06/07 12:49:46;;;;;;;;;14.00;12.75;;;;;28.49;31.35;101102.13;4996016;28;45515;-74
2023/06/07 12:52:11;;;;;;;;;13.00;13.00;;;;;28.55;32.56;101086.75;4995996;28;45386;-73
2023/06/07 12:54:37;;;;;;;;;14.75;13.75;;;;;28.54;31.70;101090.53;4982742;28;45338;-76
2023/06/07 12:57:03;;;;;;;;;16.50;16.25;;;;;28.42;31.13;101081.78;4996215;28;45385;-74
2023/06/07 12:59:28;;;;;;;;;15.75;14.50;;;;;28.36;31.70;101088.03;4995780;28;45276;-75
2023/06/07 13:01:54;;;;;;;;;16.00;13.25;;;;;28.35;31.79;101079.91;4996216;28;45348;-71
2023/06/07 13:04:19;;;;;;;;;16.00;14.00;;;;;28.31;30.84;101073.91;4995909;28;45295;-74
2023/06/07 13:06:44;;;;;;;;;13.00;13.00;;;;;28.24;31.40;101070.97;4995884;28;46031;-73
2023/06/07 13:09:11;;;;;;;;;15.50;14.75;;;;;28.31;31.84;101082.19;4995991;28;45484;-73
2023/06/07 13:11:39;;;;;;;;;13.25;11.75;;;;;28.35;31.43;101075.25;4995920;28;45409;-74
2023/06/07 13:14:05;;;;;;;;;17.50;13.75;;;;;28.47;31.13;101073.00;4995577;28;45300;-73
2023/06/07 13:16:31;;;;;;;;;14.75;12.75;;;;;28.52;30.58;101060.38;4995859;28;45838;-73
2023/06/07 13:18:57;;;;;;;;;12.50;12.25;;;;;28.71;31.11;101075.63;4978256;28;45437;-75
2023/06/07 13:21:22;;;;;;;;;12.75;8.75;;;;;28.78;30.96;101067.53;4996140;28;45309;-74
2023/06/07 13:23:48;;;;;;;;;16.50;14.75;;;;;28.72;30.13;101055.28;4995683;28;45417;-74
2023/06/07 13:26:14;;;;;;;;;14.50;13.50;;;;;28.77;31.36;101065.81;4995769;28;45455;-73
2023/06/07 13:28:43;;;;;;;;;11.75;11.75;;;;;28.83;31.83;101062.34;4995774;28;45504;-73
2023/06/07 13:31:12;;;;;;;;;12.75;12.75;;;;;28.90;32.05;101052.28;4995525;28;45291;-75
2023/06/07 13:33:37;;;;;;;;;13.25;11.25;;;;;28.94;30.97;101060.00;4989462;28;45373;-74
2023/06/07 13:36:03;;;;;;;;;15.25;14.00;;;;;28.82;30.58;101053.19;4994752;28;45463;-74
2023/06/07 13:38:28;;;;;;;;;17.75;16.75;;;;;28.81;31.17;101061.66;4995427;28;45406;-74
2023/06/07 13:40:53;;;;;;;;;18.75;15.00;;;;;28.76;30.68;101061.28;4995690;28;45492;-73
2023/06/07 13:43:19;;;;;;;;;14.00;14.00;;;;;28.84;31.23;101056.63;4995540;28;45400;-72
2023/06/07 13:45:45;;;;;;;;;15.75;14.25;;;;;28.79;31.26;101041.66;4977485;28;47311;-73
2023/06/07 13:48:11;;;;;;;;;16.50;14.00;;;;;28.99;31.05;101048.44;4995504;28;45334;-74
2023/06/07 13:50:40;;;;;;;;;17.25;14.00;;;;;29.15;31.07;101064.03;4995524;28;45373;-75
2023/06/07 13:53:06;;;;;;;;;16.50;13.75;;;;;29.32;30.68;101055.44;4993254;28;45394;-73
2023/06/07 13:55:31;;;;;;;;;15.50;14.00;;;;;29.31;30.18;101048.19;4984198;28;45326;-74
2023/06/07 13:57:57;;;;;;;;;10.00;10.00;;;;;29.37;30.26;101054.03;4995152;28;45392;-73
2023/06/07 14:00:22;;;;;;;;;17.50;16.25;;;;;29.33;29.44;101046.13;4995147;28;45543;-73
2023/06/07 14:02:48;;;;;;;;;14.00;11.25;;;;;29.27;30.48;101062.53;4994908;28;46418;-74
2023/06/07 14:05:13;;;;;;;;;16.00;16.00;;;;;29.21;30.12;101044.81;4995140;28;46169;-74
2023/06/07 14:07:40;;;;;;;;;16.25;15.25;;;;;29.33;30.05;101048.88;4994822;28;45434;-75
2023/06/07 14:10:07;;;;;;;;;14.75;13.00;;;;;29.35;29.72;101044.03;4977398;28;45352;-75
2023/06/07 14:12:32;;;;;;;;;14.50;14.50;;;;;29.28;30.01;101051.31;4994952;28;45322;-75
2023/06/07 14:14:57;;;;;;;;;15.00;14.00;;;;;29.14;30.03;101035.56;4994809;28;46203;-73
2023/06/07 14:17:23;;;;;;;;;14.25;12.25;;;;;29.22;30.66;101045.69;4976853;28;52239;-75
2023/06/07 14:19:48;;;;;;;;;19.50;14.75;;;;;29.14;30.24;101032.78;4995272;28;45235;-74
2023/06/07 14:22:14;;;;;;;;;13.75;12.50;;;;;29.17;29.52;101039.88;4994428;28;48157;-74
2023/06/07 14:24:39;;;;;;;;;11.50;11.50;;;;;29.15;29.74;101045.56;4977200;28;45534;-74
2023/06/07 14:27:06;;;;;;;;;15.00;13.75;;;;;29.10;29.67;101041.63;4994294;28;52707;-74
2023/06/07 14:29:32;;;;;;;;;12.50;12.50;;;;;29.07;29.63;101039.25;4995055;28;45402;-75
2023/06/07 14:31:57;;;;;;;;;15.25;15.25;;;;;29.15;29.89;101034.50;4994306;28;45521;-75
2023/06/07 14:34:23;;;;;;;;;9.25;9.25;;;;;29.29;30.15;101027.31;4989488;28;46357;-74
2023/06/07 14:36:49;;;;;;;;;14.00;13.75;;;;;29.48;30.02;101037.91;4994899;28;45496;-74
2023/06/07 14:39:14;;;;;;;;;20.00;14.75;;;;;29.51;30.10;101039.44;4994808;28;45311;-73
2023/06/07 14:41:39;;;;;;;;;17.25;14.00;;;;;29.37;29.50;101031.94;4994475;28;45329;-73
2023/06/07 14:44:06;;;;;;;;;13.00;12.75;;;;;29.26;29.83;101025.78;4994417;28;46013;-74
2023/06/07 14:46:32;;;;;;;;;15.50;12.75;;;;;29.23;29.65;101039.97;4994408;28;45492;-73
2023/06/07 14:48:57;;;;;;;;;17.75;13.25;;;;;29.09;29.91;101028.88;4994322;28;45560;-73
2023/06/07 14:51:24;;;;;;;;;14.75;14.00;;;;;29.06;30.34;101035.63;4994059;28;52148;-76
2023/06/07 14:53:50;;;;;;;;;20.25;16.00;;;;;29.00;29.63;101029.97;4986110;28;47154;-73
2023/06/07 14:56:15;;;;;;;;;12.25;12.25;;;;;28.96;29.89;101027.56;4989314;28;45383;-75
2023/06/07 14:58:42;;;;;;;;;14.75;13.75;;;;;28.93;29.62;101030.69;4994881;28;45354;-76
2023/06/07 15:01:07;;;;;;;;;15.00;12.00;;;;;28.80;29.90;101010.25;4994051;28;45417;-74
2023/06/07 15:03:35;;;;;;;;;12.25;12.25;;;;;28.81;29.98;101025.78;4997548;28;46270;-72
2023/06/07 15:06:00;;;;;;;;;12.75;12.75;;;;;28.88;30.54;101021.25;4997738;28;45330;-73
2023/06/07 15:08:26;;;;;;;;;13.50;12.00;;;;;29.01;30.42;101029.75;4980184;28;45413;-75
2023/06/07 15:10:51;;;;;;;;;17.00;15.25;;;;;29.07;29.61;101033.72;4997825;28;46987;-73
2023/06/07 15:13:18;;;;;;;;;17.25;13.50;;;;;29.11;30.08;101026.75;4997977;28;46382;-76
2023/06/07 15:15:43;;;;;;;;;14.00;12.25;;;;;29.29;30.21;101028.19;4997533;28;45204;-75
2023/06/07 15:18:08;;;;;;;;;12.75;12.75;;;;;29.34;29.89;101024.88;4998264;28;45307;-74
2023/06/07 15:20:33;;;;;;;;;14.75;14.75;;;;;29.35;29.79;101023.81;4997735;28;51563;-76
2023/06/07 15:22:59;;;;;;;;;12.75;12.25;;;;;29.28;29.01;101017.31;4997775;28;46193;-74
2023/06/07 15:25:25;;;;;;;;;12.75;12.75;;;;;29.30;29.30;101021.63;4997714;28;45331;-74
2023/06/07 15:27:50;;;;;;;;;15.50;13.00;;;;;29.24;28.52;101022.38;4998023;28;45433;-74
2023/06/07 15:30:16;;;;;;;;;16.50;13.50;;;;;29.14;28.69;101012.59;4997165;28;47531;-74
2023/06/07 15:32:41;;;;;;;;;13.50;12.75;;;;;29.26;29.47;101025.78;4963836;28;46151;-74
2023/06/07 15:35:07;;;;;;;;;14.50;13.00;;;;;29.26;29.60;101030.47;4991512;28;45942;-74
2023/06/07 15:37:32;;;;;;;;;15.50;14.00;;;;;29.24;29.79;101027.88;4997803;28;45356;-76
2023/06/07 15:39:58;;;;;;;;;15.00;13.50;;;;;29.30;29.95;101020.75;4997054;28;53963;-74